Time,TemperatureF,DewpointF,PressureIn,WindDirection,WindDirectionDegrees,WindSpeedMPH,WindSpeedGustMPH,Humidity,HourlyPrecipIn,Conditions,Clouds,dailyrainin,SoftwareType,DateUTC
2013-03-16 07:27:00,39.6,36.9,29.84,North,-999,-999.0,-999.0,90,-99.99,,,-99.99,meteohub,2013-03-16 12:27:00,
2013-03-16 07:33:00,39.4,36.7,29.85,North,-999,-999.0,-999.0,90,-99.99,,,-99.99,meteohub,2013-03-16 12:33:00,
2013-03-16 07:36:00,39.4,37.0,29.85,North,-999,-999.0,-999.0,91,-99.99,,,-99.99,meteohub,2013-03-16 12:36:00,
2013-03-16 07:37:00,39.4,37.0,29.85,North,-999,-999.0,-999.0,91,-99.99,,,-99.99,meteohub,2013-03-16 12:37:00,
2013-03-16 07:42:00,39.4,37.0,29.85,North,-999,-999.0,-999.0,91,-99.99,,,-99.99,meteohub,2013-03-16 12:42:00,
2013-03-16 07:47:00,39.4,37.0,29.86,North,-999,-999.0,-999.0,91,-99.99,,,-99.99,meteohub,2013-03-16 12:47:00,
2013-03-16 07:52:00,39.6,37.2,29.86,North,-999,-999.0,-999.0,91,-99.99,,,-99.99,meteohub,2013-03-16 12:52:00,
2013-03-16 07:58:00,39.6,37.2,29.86,North,-999,-999.0,-999.0,91,-99.99,,,-99.99,meteohub,2013-03-16 12:58:00,
2013-03-16 08:04:00,39.7,37.0,29.85,North,-999,-999.0,-999.0,90,-99.99,,,-99.99,meteohub,2013-03-16 13:04:00,
2013-03-16 08:10:00,39.7,37.0,29.86,North,-999,-999.0,-999.0,90,-99.99,,,-99.99,meteohub,2013-03-16 13:10:00,
2013-03-16 08:16:00,39.7,37.0,29.86,North,-999,-999.0,-999.0,90,-99.99,,,-99.99,meteohub,2013-03-16 13:16:00,
2013-03-16 08:22:00,39.9,37.2,29.86,North,-999,-999.0,-999.0,90,-99.99,,,-99.99,meteohub,2013-03-16 13:22:00,
2013-03-16 08:27:00,39.9,37.2,29.87,North,-999,-999.0,-999.0,90,-99.99,,,-99.99,meteohub,2013-03-16 13:27:00,
2013-03-16 08:32:00,39.9,37.2,29.88,North,-999,-999.0,-999.0,90,-99.99,,,-99.99,meteohub,2013-03-16 13:32:00,
2013-03-16 08:37:00,40.1,37.0,29.88,North,-999,-999.0,-999.0,89,-99.99,,,-99.99,meteohub,2013-03-16 13:37:00,
2013-03-16 08:42:00,40.3,37.0,29.88,North,-999,-999.0,-999.0,88,-99.99,,,-99.99,meteohub,2013-03-16 13:42:00,
2013-03-16 08:50:00,40.6,37.4,29.90,North,-999,-999.0,-999.0,88,-99.99,,,-99.99,meteohub,2013-03-16 13:50:00,
2013-03-16 08:56:00,40.6,37.0,29.91,North,-999,-999.0,-999.0,87,-99.99,,,-99.99,meteohub,2013-03-16 13:56:00,
2013-03-16 09:02:00,41.0,37.2,29.91,North,-999,-999.0,-999.0,86,-99.99,,,-99.99,meteohub,2013-03-16 14:02:00,
2013-03-16 09:07:00,41.2,37.4,29.90,North,-999,-999.0,-999.0,86,-99.99,,,-99.99,meteohub,2013-03-16 14:07:00,
2013-03-16 09:15:00,41.2,37.4,29.90,North,-999,-999.0,-999.0,86,-99.99,,,-99.99,meteohub,2013-03-16 14:15:00,
2013-03-16 09:21:00,41.4,37.6,29.90,North,-999,-999.0,-999.0,86,-99.99,,,-99.99,meteohub,2013-03-16 14:21:00,
2013-03-16 09:27:00,41.5,37.4,29.91,North,-999,-999.0,-999.0,85,-99.99,,,-99.99,meteohub,2013-03-16 14:27:00,
2013-03-16 09:32:00,41.5,37.4,29.90,North,-999,-999.0,-999.0,85,-99.99,,,-99.99,meteohub,2013-03-16 14:32:00,
2013-03-16 09:39:00,42.1,37.2,29.91,North,-999,-999.0,-999.0,83,-99.99,,,-99.99,meteohub,2013-03-16 14:39:00,
2013-03-16 09:45:00,42.1,37.0,29.91,North,-999,-999.0,-999.0,82,-99.99,,,-99.99,meteohub,2013-03-16 14:45:00,
2013-03-16 09:51:00,42.1,36.7,29.92,North,-999,-999.0,-999.0,81,-99.99,,,-99.99,meteohub,2013-03-16 14:51:00,
2013-03-16 09:57:00,41.7,36.7,29.93,North,-999,-999.0,-999.0,82,-99.99,,,-99.99,meteohub,2013-03-16 14:57:00,
2013-03-16 10:04:00,41.5,36.5,29.94,North,-999,-999.0,-999.0,82,-99.99,,,-99.99,meteohub,2013-03-16 15:04:00,
2013-03-16 10:10:00,41.7,36.7,29.93,North,-999,-999.0,-999.0,82,-99.99,,,-99.99,meteohub,2013-03-16 15:10:00,
2013-03-16 10:16:00,41.5,36.5,29.93,North,-999,-999.0,-999.0,82,-99.99,,,-99.99,meteohub,2013-03-16 15:16:00,
2013-03-16 10:22:00,41.9,36.5,29.91,North,-999,-999.0,-999.0,81,-99.99,,,-99.99,meteohub,2013-03-16 15:22:00,
2013-03-16 10:29:00,42.4,36.3,29.92,North,-999,-999.0,-999.0,79,-99.99,,,-99.99,meteohub,2013-03-16 15:29:00,
2013-03-16 10:35:00,43.5,36.5,29.92,North,-999,-999.0,-999.0,76,-99.99,,,-99.99,meteohub,2013-03-16 15:35:00,
2013-03-16 10:42:00,42.8,36.1,29.93,North,-999,-999.0,-999.0,77,-99.99,,,-99.99,meteohub,2013-03-16 15:42:00,
2013-03-16 10:47:00,42.8,36.1,29.93,North,-999,-999.0,-999.0,77,-99.99,,,-99.99,meteohub,2013-03-16 15:47:00,
2013-03-16 10:53:00,42.8,36.5,29.94,North,-999,-999.0,-999.0,78,-99.99,,,-99.99,meteohub,2013-03-16 15:53:00,
2013-03-16 11:00:00,42.3,36.0,29.94,North,-999,-999.0,-999.0,78,-99.99,,,-99.99,meteohub,2013-03-16 16:00:00,
2013-03-16 11:06:00,42.4,36.1,29.94,North,-999,-999.0,-999.0,78,-99.99,,,-99.99,meteohub,2013-03-16 16:06:00,
2013-03-16 11:12:00,42.8,36.5,29.94,North,-999,-999.0,-999.0,78,-99.99,,,-99.99,meteohub,2013-03-16 16:12:00,
2013-03-16 11:18:00,43.2,36.5,29.94,North,-999,-999.0,-999.0,77,-99.99,,,-99.99,meteohub,2013-03-16 16:18:00,
2013-03-16 11:24:00,43.3,36.7,29.94,North,-999,-999.0,-999.0,77,-99.99,,,-99.99,meteohub,2013-03-16 16:24:00,
2013-03-16 11:30:00,43.3,36.3,29.95,North,-999,-999.0,-999.0,76,-99.99,,,-99.99,meteohub,2013-03-16 16:30:00,
2013-03-16 11:36:00,43.2,36.1,29.96,North,-999,-999.0,-999.0,76,-99.99,,,-99.99,meteohub,2013-03-16 16:36:00,
2013-03-16 11:42:00,43.3,36.0,29.96,North,-999,-999.0,-999.0,75,-99.99,,,-99.99,meteohub,2013-03-16 16:42:00,
2013-03-16 11:47:00,44.1,36.0,29.96,North,-999,-999.0,-999.0,73,-99.99,,,-99.99,meteohub,2013-03-16 16:47:00,
2013-03-16 11:52:00,44.4,35.2,29.97,North,-999,-999.0,-999.0,70,-99.99,,,-99.99,meteohub,2013-03-16 16:52:00,
2013-03-16 11:58:00,44.2,35.8,29.96,North,-999,-999.0,-999.0,72,-99.99,,,-99.99,meteohub,2013-03-16 16:58:00,
2013-03-16 12:04:00,44.6,36.1,29.96,North,-999,-999.0,-999.0,72,-99.99,,,-99.99,meteohub,2013-03-16 17:04:00,
2013-03-16 12:10:00,44.6,35.8,29.95,North,-999,-999.0,-999.0,71,-99.99,,,-99.99,meteohub,2013-03-16 17:10:00,
2013-03-16 12:17:00,45.1,35.6,29.96,North,-999,-999.0,-999.0,69,-99.99,,,-99.99,meteohub,2013-03-16 17:17:00,
2013-03-16 12:22:00,45.3,35.8,29.95,North,-999,-999.0,-999.0,69,-99.99,,,-99.99,meteohub,2013-03-16 17:22:00,
2013-03-16 12:29:00,45.3,35.8,29.95,North,-999,-999.0,-999.0,69,-99.99,,,-99.99,meteohub,2013-03-16 17:29:00,
2013-03-16 12:35:00,46.0,36.1,29.96,North,-999,-999.0,-999.0,68,-99.99,,,-99.99,meteohub,2013-03-16 17:35:00,
2013-03-16 12:41:00,46.4,35.2,29.96,North,-999,-999.0,-999.0,65,-99.99,,,-99.99,meteohub,2013-03-16 17:41:00,
2013-03-16 12:47:00,46.6,35.8,29.96,North,-999,-999.0,-999.0,66,-99.99,,,-99.99,meteohub,2013-03-16 17:47:00,
2013-03-16 12:52:00,47.1,36.0,29.96,North,-999,-999.0,-999.0,65,-99.99,,,-99.99,meteohub,2013-03-16 17:52:00,
2013-03-16 12:59:00,46.6,35.4,29.95,North,-999,-999.0,-999.0,65,-99.99,,,-99.99,meteohub,2013-03-16 17:59:00,
2013-03-16 13:06:00,46.8,34.9,29.94,North,-999,-999.0,-999.0,63,-99.99,,,-99.99,meteohub,2013-03-16 18:06:00,
2013-03-16 13:12:00,46.2,34.7,29.94,North,-999,-999.0,-999.0,64,-99.99,,,-99.99,meteohub,2013-03-16 18:12:00,
2013-03-16 13:17:00,47.5,35.1,29.94,North,-999,-999.0,-999.0,62,-99.99,,,-99.99,meteohub,2013-03-16 18:17:00,
2013-03-16 13:24:00,47.5,35.6,29.95,North,-999,-999.0,-999.0,63,-99.99,,,-99.99,meteohub,2013-03-16 18:24:00,
2013-03-16 13:30:00,47.3,34.2,29.95,North,-999,-999.0,-999.0,60,-99.99,,,-99.99,meteohub,2013-03-16 18:30:00,
2013-03-16 13:36:00,47.1,34.3,29.94,North,-999,-999.0,-999.0,61,-99.99,,,-99.99,meteohub,2013-03-16 18:36:00,
2013-03-16 13:42:00,46.6,34.3,29.96,North,-999,-999.0,-999.0,62,-99.99,,,-99.99,meteohub,2013-03-16 18:42:00,
2013-03-16 13:49:00,47.1,34.7,29.95,North,-999,-999.0,-999.0,62,-99.99,,,-99.99,meteohub,2013-03-16 18:49:00,
2013-03-16 13:55:00,46.9,33.4,29.96,North,-999,-999.0,-999.0,59,-99.99,,,-99.99,meteohub,2013-03-16 18:55:00,
2013-03-16 14:01:00,46.9,33.4,29.95,North,-999,-999.0,-999.0,59,-99.99,,,-99.99,meteohub,2013-03-16 19:01:00,
2013-03-16 14:07:00,46.2,34.0,29.94,North,-999,-999.0,-999.0,62,-99.99,,,-99.99,meteohub,2013-03-16 19:07:00,
2013-03-16 14:14:00,46.8,34.0,29.93,North,-999,-999.0,-999.0,61,-99.99,,,-99.99,meteohub,2013-03-16 19:14:00,
2013-03-16 14:20:00,46.9,33.8,29.93,North,-999,-999.0,-999.0,60,-99.99,,,-99.99,meteohub,2013-03-16 19:20:00,
2013-03-16 14:26:00,46.6,33.8,29.93,North,-999,-999.0,-999.0,61,-99.99,,,-99.99,meteohub,2013-03-16 19:26:00,
2013-03-16 14:32:00,46.6,33.8,29.93,North,-999,-999.0,-999.0,61,-99.99,,,-99.99,meteohub,2013-03-16 19:32:00,
2013-03-16 14:38:00,46.6,33.8,29.93,North,-999,-999.0,-999.0,61,-99.99,,,-99.99,meteohub,2013-03-16 19:38:00,
2013-03-16 14:44:00,46.2,32.7,29.93,North,-999,-999.0,-999.0,59,-99.99,,,-99.99,meteohub,2013-03-16 19:44:00,
2013-03-16 14:51:00,46.0,33.3,29.93,North,-999,-999.0,-999.0,61,-99.99,,,-99.99,meteohub,2013-03-16 19:51:00,
2013-03-16 14:57:00,46.0,33.3,29.93,North,-999,-999.0,-999.0,61,-99.99,,,-99.99,meteohub,2013-03-16 19:57:00,
2013-03-16 15:03:00,45.9,33.3,29.93,North,-999,-999.0,-999.0,61,-99.99,,,-99.99,meteohub,2013-03-16 20:03:00,
2013-03-16 15:09:00,45.7,33.1,29.94,North,-999,-999.0,-999.0,61,-99.99,,,-99.99,meteohub,2013-03-16 20:09:00,
2013-03-16 15:16:00,45.1,32.9,29.92,North,-999,-999.0,-999.0,62,-99.99,,,-99.99,meteohub,2013-03-16 20:16:00,
2013-03-16 15:22:00,45.5,33.3,29.92,North,-999,-999.0,-999.0,62,-99.99,,,-99.99,meteohub,2013-03-16 20:22:00,
2013-03-16 15:27:00,45.3,32.7,29.93,North,-999,-999.0,-999.0,61,-99.99,,,-99.99,meteohub,2013-03-16 20:27:00,
2013-03-16 15:34:00,45.3,33.1,29.93,North,-999,-999.0,-999.0,62,-99.99,,,-99.99,meteohub,2013-03-16 20:34:00,
2013-03-16 15:40:00,45.5,32.9,29.93,North,-999,-999.0,-999.0,61,-99.99,,,-99.99,meteohub,2013-03-16 20:40:00,
2013-03-16 15:46:00,45.5,33.3,29.93,North,-999,-999.0,-999.0,62,-99.99,,,-99.99,meteohub,2013-03-16 20:46:00,
2013-03-16 15:52:00,45.7,33.1,29.93,North,-999,-999.0,-999.0,61,-99.99,,,-99.99,meteohub,2013-03-16 20:52:00,
2013-03-16 15:57:00,45.3,32.7,29.93,North,-999,-999.0,-999.0,61,-99.99,,,-99.99,meteohub,2013-03-16 20:57:00,
2013-03-16 16:02:00,45.1,32.9,29.93,North,-999,-999.0,-999.0,62,-99.99,,,-99.99,meteohub,2013-03-16 21:02:00,
2013-03-16 16:08:00,44.8,32.9,29.93,North,-999,-999.0,-999.0,63,-99.99,,,-99.99,meteohub,2013-03-16 21:08:00,
2013-03-16 16:14:00,45.1,32.9,29.93,North,-999,-999.0,-999.0,62,-99.99,,,-99.99,meteohub,2013-03-16 21:14:00,
2013-03-16 16:20:00,45.1,32.5,29.94,North,-999,-999.0,-999.0,61,-99.99,,,-99.99,meteohub,2013-03-16 21:20:00,
2013-03-16 16:26:00,45.1,32.5,29.94,North,-999,-999.0,-999.0,61,-99.99,,,-99.99,meteohub,2013-03-16 21:26:00,
2013-03-16 16:32:00,45.1,32.5,29.94,North,-999,-999.0,-999.0,61,-99.99,,,-99.99,meteohub,2013-03-16 21:32:00,
2013-03-16 16:37:00,45.5,33.3,29.94,North,-999,-999.0,-999.0,62,-99.99,,,-99.99,meteohub,2013-03-16 21:37:00,
2013-03-16 16:42:00,45.3,32.2,29.94,North,-999,-999.0,-999.0,60,-99.99,,,-99.99,meteohub,2013-03-16 21:42:00,
2013-03-16 16:48:00,45.0,32.4,29.94,North,-999,-999.0,-999.0,61,-99.99,,,-99.99,meteohub,2013-03-16 21:48:00,
2013-03-16 16:54:00,45.0,32.7,29.94,North,-999,-999.0,-999.0,62,-99.99,,,-99.99,meteohub,2013-03-16 21:54:00,
2013-03-16 17:02:00,45.0,32.4,29.93,North,-999,-999.0,-999.0,61,-99.99,,,-99.99,meteohub,2013-03-16 22:02:00,
2013-03-16 17:07:00,44.8,32.2,29.94,North,-999,-999.0,-999.0,61,-99.99,,,-99.99,meteohub,2013-03-16 22:07:00,
2013-03-16 17:12:00,44.8,32.5,29.94,North,-999,-999.0,-999.0,62,-99.99,,,-99.99,meteohub,2013-03-16 22:12:00,
2013-03-16 17:19:00,44.8,32.5,29.94,North,-999,-999.0,-999.0,62,-99.99,,,-99.99,meteohub,2013-03-16 22:19:00,
2013-03-16 17:25:00,44.4,32.2,29.94,North,-999,-999.0,-999.0,62,-99.99,,,-99.99,meteohub,2013-03-16 22:25:00,
2013-03-16 17:31:00,44.4,32.5,29.94,North,-999,-999.0,-999.0,63,-99.99,,,-99.99,meteohub,2013-03-16 22:31:00,
2013-03-16 17:37:00,43.9,32.5,29.94,North,-999,-999.0,-999.0,64,-99.99,,,-99.99,meteohub,2013-03-16 22:37:00,
2013-03-16 17:42:00,43.7,32.4,29.93,North,-999,-999.0,-999.0,64,-99.99,,,-99.99,meteohub,2013-03-16 22:42:00,
2013-03-16 17:47:00,43.7,32.7,29.92,North,-999,-999.0,-999.0,65,-99.99,,,-99.99,meteohub,2013-03-16 22:47:00,
2013-03-16 17:52:00,43.5,32.5,29.93,North,-999,-999.0,-999.0,65,-99.99,,,-99.99,meteohub,2013-03-16 22:52:00,
2013-03-16 17:59:00,43.5,32.5,29.92,North,-999,-999.0,-999.0,65,-99.99,,,-99.99,meteohub,2013-03-16 22:59:00,
2013-03-16 18:06:00,43.5,32.2,29.92,North,-999,-999.0,-999.0,64,-99.99,,,-99.99,meteohub,2013-03-16 23:06:00,
2013-03-16 18:12:00,43.5,32.2,29.92,North,-999,-999.0,-999.0,64,-99.99,,,-99.99,meteohub,2013-03-16 23:12:00,
2013-03-16 18:17:00,43.7,32.4,29.92,North,-999,-999.0,-999.0,64,-99.99,,,-99.99,meteohub,2013-03-16 23:17:00,
2013-03-16 18:24:00,43.5,32.2,29.93,North,-999,-999.0,-999.0,64,-99.99,,,-99.99,meteohub,2013-03-16 23:24:00,
2013-03-16 18:30:00,43.5,32.2,29.93,North,-999,-999.0,-999.0,64,-99.99,,,-99.99,meteohub,2013-03-16 23:30:00,
2013-03-16 18:37:00,43.3,32.0,29.94,North,-999,-999.0,-999.0,64,-99.99,,,-99.99,meteohub,2013-03-16 23:37:00,
2013-03-16 18:42:00,43.2,32.2,29.93,North,-999,-999.0,-999.0,65,-99.99,,,-99.99,meteohub,2013-03-16 23:42:00,
2013-03-16 18:49:00,43.0,32.0,29.94,North,-999,-999.0,-999.0,65,-99.99,,,-99.99,meteohub,2013-03-16 23:49:00,
2013-03-16 18:55:00,43.2,32.2,29.94,North,-999,-999.0,-999.0,65,-99.99,,,-99.99,meteohub,2013-03-16 23:55:00,
2013-03-16 19:01:00,43.0,32.0,29.94,North,-999,-999.0,-999.0,65,-99.99,,,-99.99,meteohub,2013-03-17 00:01:00,
2013-03-16 19:07:00,43.0,32.0,29.95,North,-999,-999.0,-999.0,65,-99.99,,,-99.99,meteohub,2013-03-17 00:07:00,
2013-03-16 19:13:00,42.6,31.6,29.95,North,-999,-999.0,-999.0,65,-99.99,,,-99.99,meteohub,2013-03-17 00:13:00,
2013-03-16 19:19:00,42.6,31.6,29.95,North,-999,-999.0,-999.0,65,-99.99,,,-99.99,meteohub,2013-03-17 00:19:00,
2013-03-16 19:25:00,42.6,31.6,29.95,North,-999,-999.0,-999.0,65,-99.99,,,-99.99,meteohub,2013-03-17 00:25:00,
2013-03-16 19:32:00,42.4,31.5,29.94,North,-999,-999.0,-999.0,65,-99.99,,,-99.99,meteohub,2013-03-17 00:32:00,
2013-03-16 19:38:00,42.3,31.6,29.94,North,-999,-999.0,-999.0,66,-99.99,,,-99.99,meteohub,2013-03-17 00:38:00,
2013-03-16 19:44:00,42.3,31.6,29.94,North,-999,-999.0,-999.0,66,-99.99,,,-99.99,meteohub,2013-03-17 00:44:00,
2013-03-16 19:50:00,42.1,32.0,29.94,North,-999,-999.0,-999.0,67,-99.99,,,-99.99,meteohub,2013-03-17 00:50:00,
2013-03-16 19:56:00,41.9,32.2,29.94,North,-999,-999.0,-999.0,68,-99.99,,,-99.99,meteohub,2013-03-17 00:56:00,
2013-03-16 20:02:00,41.9,32.2,29.94,North,-999,-999.0,-999.0,68,-99.99,,,-99.99,meteohub,2013-03-17 01:02:00,
2013-03-16 20:07:00,41.7,32.0,29.95,North,-999,-999.0,-999.0,68,-99.99,,,-99.99,meteohub,2013-03-17 01:07:00,
2013-03-16 20:15:00,41.5,32.2,29.95,North,-999,-999.0,-999.0,69,-99.99,,,-99.99,meteohub,2013-03-17 01:15:00,
2013-03-16 20:21:00,41.4,32.0,29.96,North,-999,-999.0,-999.0,69,-99.99,,,-99.99,meteohub,2013-03-17 01:21:00,
2013-03-16 20:27:00,41.4,32.0,29.95,North,-999,-999.0,-999.0,69,-99.99,,,-99.99,meteohub,2013-03-17 01:27:00,
2013-03-16 20:32:00,41.4,32.0,29.95,North,-999,-999.0,-999.0,69,-99.99,,,-99.99,meteohub,2013-03-17 01:32:00,
2013-03-16 20:37:00,41.2,32.2,29.96,North,-999,-999.0,-999.0,70,-99.99,,,-99.99,meteohub,2013-03-17 01:37:00,
2013-03-16 20:42:00,41.0,31.6,29.96,North,-999,-999.0,-999.0,69,-99.99,,,-99.99,meteohub,2013-03-17 01:42:00,
2013-03-16 20:47:00,41.0,31.6,29.96,North,-999,-999.0,-999.0,69,-99.99,,,-99.99,meteohub,2013-03-17 01:47:00,
2013-03-16 20:52:00,40.8,31.1,29.96,North,-999,-999.0,-999.0,68,-99.99,,,-99.99,meteohub,2013-03-17 01:52:00,
2013-03-16 20:58:00,40.6,30.9,29.96,North,-999,-999.0,-999.0,68,-99.99,,,-99.99,meteohub,2013-03-17 01:58:00,
2013-03-16 21:05:00,40.6,30.9,29.96,North,-999,-999.0,-999.0,68,-99.99,,,-99.99,meteohub,2013-03-17 02:05:00,
2013-03-16 21:11:00,40.5,31.1,29.96,North,-999,-999.0,-999.0,69,-99.99,,,-99.99,meteohub,2013-03-17 02:11:00,
2013-03-16 21:17:00,40.5,31.1,29.96,North,-999,-999.0,-999.0,69,-99.99,,,-99.99,meteohub,2013-03-17 02:17:00,
2013-03-16 21:22:00,40.3,30.9,29.96,North,-999,-999.0,-999.0,69,-99.99,,,-99.99,meteohub,2013-03-17 02:22:00,
2013-03-16 21:27:00,40.1,30.7,29.96,North,-999,-999.0,-999.0,69,-99.99,,,-99.99,meteohub,2013-03-17 02:27:00,
2013-03-16 21:32:00,40.1,30.7,29.96,North,-999,-999.0,-999.0,69,-99.99,,,-99.99,meteohub,2013-03-17 02:32:00,
2013-03-16 21:37:00,39.7,30.4,29.96,North,-999,-999.0,-999.0,69,-99.99,,,-99.99,meteohub,2013-03-17 02:37:00,
2013-03-16 21:42:00,39.6,30.2,29.96,North,-999,-999.0,-999.0,69,-99.99,,,-99.99,meteohub,2013-03-17 02:42:00,
2013-03-16 21:48:00,39.4,30.0,29.96,North,-999,-999.0,-999.0,69,-99.99,,,-99.99,meteohub,2013-03-17 02:48:00,
2013-03-16 21:54:00,39.2,29.5,29.97,North,-999,-999.0,-999.0,68,-99.99,,,-99.99,meteohub,2013-03-17 02:54:00,
2013-03-16 22:00:00,39.0,29.7,29.97,North,-999,-999.0,-999.0,69,-99.99,,,-99.99,meteohub,2013-03-17 03:00:00,
2013-03-16 22:06:00,39.0,29.7,29.97,North,-999,-999.0,-999.0,69,-99.99,,,-99.99,meteohub,2013-03-17 03:06:00,
2013-03-16 22:12:00,38.8,29.5,29.97,North,-999,-999.0,-999.0,69,-99.99,,,-99.99,meteohub,2013-03-17 03:12:00,
2013-03-16 22:17:00,38.8,29.1,29.97,North,-999,-999.0,-999.0,68,-99.99,,,-99.99,meteohub,2013-03-17 03:17:00,
2013-03-16 22:25:00,38.5,28.4,29.97,North,-999,-999.0,-999.0,67,-99.99,,,-99.99,meteohub,2013-03-17 03:25:00,
2013-03-16 22:31:00,38.5,28.8,29.97,North,-999,-999.0,-999.0,68,-99.99,,,-99.99,meteohub,2013-03-17 03:31:00,
2013-03-16 22:37:00,38.5,29.1,29.97,North,-999,-999.0,-999.0,69,-99.99,,,-99.99,meteohub,2013-03-17 03:37:00,
2013-03-16 22:43:00,38.3,28.9,29.96,North,-999,-999.0,-999.0,69,-99.99,,,-99.99,meteohub,2013-03-17 03:43:00,
2013-03-16 22:50:00,38.1,28.9,29.97,North,-999,-999.0,-999.0,69,-99.99,,,-99.99,meteohub,2013-03-17 03:50:00,
2013-03-16 22:56:00,38.1,28.9,29.97,North,-999,-999.0,-999.0,69,-99.99,,,-99.99,meteohub,2013-03-17 03:56:00,
2013-03-16 23:02:00,37.9,28.4,29.98,North,-999,-999.0,-999.0,68,-99.99,,,-99.99,meteohub,2013-03-17 04:02:00,
2013-03-16 23:08:00,37.9,28.4,29.99,North,-999,-999.0,-999.0,68,-99.99,,,-99.99,meteohub,2013-03-17 04:08:00,
2013-03-16 23:11:00,37.9,28.0,29.99,North,-999,-999.0,-999.0,67,-99.99,,,-99.99,meteohub,2013-03-17 04:11:00,
2013-03-16 23:12:00,37.9,28.4,29.98,North,-999,-999.0,-999.0,68,-99.99,,,-99.99,meteohub,2013-03-17 04:12:00,
2013-03-16 23:17:00,37.8,28.2,29.99,North,-999,-999.0,-999.0,68,-99.99,,,-99.99,meteohub,2013-03-17 04:17:00,
2013-03-16 23:23:00,37.8,28.6,29.99,North,-999,-999.0,-999.0,69,-99.99,,,-99.99,meteohub,2013-03-17 04:23:00,
2013-03-16 23:30:00,37.6,28.4,29.99,North,-999,-999.0,-999.0,69,-99.99,,,-99.99,meteohub,2013-03-17 04:30:00,
2013-03-16 23:36:00,37.6,28.4,30.01,North,-999,-999.0,-999.0,69,-99.99,,,-99.99,meteohub,2013-03-17 04:36:00,
2013-03-16 23:42:00,37.4,28.2,30.00,North,-999,-999.0,-999.0,69,-99.99,,,-99.99,meteohub,2013-03-17 04:42:00,
2013-03-16 23:48:00,37.4,28.2,30.00,North,-999,-999.0,-999.0,69,-99.99,,,-99.99,meteohub,2013-03-17 04:48:00,
2013-03-16 23:55:00,37.4,28.9,30.00,North,-999,-999.0,-999.0,71,-99.99,,,-99.99,meteohub,2013-03-17 04:55:00,